Time;durP1;ratioP1;P1;durP2;ratioP2;P2;SDS_P1;SDS_P2;PMS_P1;PMS_P2;Temp;Humidity;BMP_temperature;BMP_pressure;BME280_temperature;BME280_humidity;BME280_pressure;Samples;Min_cycle;Max_cycle;Signal;HPM_P1;HPM_P2
2022/06/08 00:01:41;;;;;;;2.83;1.30;;;15.30;99.90;;;;;;5012011;28;20456;-76
2022/06/08 00:04:09;;;;;;;1.40;1.30;;;15.30;99.90;;;;;;5012217;28;20435;-75
2022/06/08 00:06:34;;;;;;;1.10;1.00;;;15.30;99.90;;;;;;5012160;28;21009;-76
2022/06/08 00:09:00;;;;;;;2.80;1.60;;;15.30;99.90;;;;;;5011067;28;20434;-74
2022/06/08 00:11:25;;;;;;;3.23;1.10;;;15.30;99.90;;;;;;5011976;28;20194;-76
2022/06/08 00:13:52;;;;;;;1.97;1.80;;;15.30;99.90;;;;;;5011045;28;20193;-76
2022/06/08 00:16:18;;;;;;;2.70;1.00;;;15.20;99.90;;;;;;5012141;28;20241;-75
2022/06/08 00:18:44;;;;;;;3.23;1.20;;;15.20;99.90;;;;;;5010708;28;20441;-78
2022/06/08 00:21:11;;;;;;;1.90;1.10;;;15.20;99.90;;;;;;5008823;28;20575;-76
2022/06/08 00:23:37;;;;;;;2.20;1.00;;;15.20;99.90;;;;;;5007796;28;20437;-76
2022/06/08 00:26:04;;;;;;;1.77;1.50;;;15.20;99.90;;;;;;5011812;28;20465;-75
2022/06/08 00:28:31;;;;;;;4.40;1.50;;;15.10;99.90;;;;;;5010390;28;20215;-76
2022/06/08 00:30:57;;;;;;;3.20;1.20;;;15.20;99.90;;;;;;5008950;28;20927;-76
2022/06/08 00:33:22;;;;;;;1.97;1.33;;;15.20;99.90;;;;;;5010350;28;20472;-77
2022/06/08 00:35:48;;;;;;;3.13;1.37;;;15.20;99.90;;;;;;5011842;28;20918;-76
2022/06/08 00:38:13;;;;;;;2.50;1.20;;;15.20;99.90;;;;;;5008409;28;20205;-76
2022/06/08 00:41:00;;;;;;;1.50;1.37;;;15.20;99.90;;;;;;5007829;28;20187;-77
2022/06/08 00:43:26;;;;;;;1.27;1.03;;;15.30;99.90;;;;;;5002077;28;20273;-76
2022/06/08 00:45:52;;;;;;;2.93;1.20;;;15.30;99.90;;;;;;5010632;28;20564;-76
2022/06/08 00:48:18;;;;;;;2.60;1.53;;;15.30;99.90;;;;;;5011686;28;20205;-76
2022/06/08 00:50:52;;;;;;;1.90;1.23;;;15.30;99.90;;;;;;5007482;28;20444;-77
2022/06/08 00:53:32;;;;;;;1.43;1.33;;;15.30;99.90;;;;;;5009465;28;20455;-78
2022/06/08 00:56:01;;;;;;;1.77;1.13;;;15.20;99.90;;;;;;5010644;28;20445;-77
2022/06/08 00:58:30;;;;;;;2.20;1.43;;;15.20;99.90;;;;;;5011614;28;20429;-76
2022/06/08 02:31:37;;;;;;;2.30;2.10;;;13.70;99.90;;;;;;5687774;23;20533;-77
2022/06/08 02:34:42;;;;;;;6.00;2.00;;;13.70;99.90;;;;;;5029602;28;20981;-76
2022/06/08 02:37:19;;;;;;;2.00;1.90;;;13.70;99.90;;;;;;4970040;28;20489;-77
2022/06/08 02:40:08;;;;;;;3.63;2.50;;;13.60;99.90;;;;;;4970849;28;20943;-77
2022/06/08 02:42:39;;;;;;;2.10;1.90;;;13.50;99.90;;;;;;4986843;28;20488;-78
2022/06/08 02:45:13;;;;;;;1.90;1.80;;;13.40;99.90;;;;;;5002958;28;20456;-77
2022/06/08 02:47:41;;;;;;;2.90;1.70;;;13.40;99.90;;;;;;5013680;28;20467;-77
2022/06/08 02:50:10;;;;;;;2.17;2.00;;;13.30;99.90;;;;;;5012450;28;20445;-77
2022/06/08 02:52:36;;;;;;;1.80;1.63;;;13.30;99.90;;;;;;5010885;28;20534;-77
2022/06/08 02:55:08;;;;;;;3.30;2.17;;;13.20;99.90;;;;;;5007588;28;20441;-76
2022/06/08 02:57:49;;;;;;;4.10;2.17;;;13.20;99.90;;;;;;5013801;28;20667;-77
2022/06/08 03:00:40;;;;;;;3.60;2.13;;;13.10;99.90;;;;;;5010167;28;20440;-77
2022/06/08 03:03:20;;;;;;;2.90;2.07;;;13.10;99.90;;;;;;5013049;28;20440;-77
2022/06/08 03:06:06;;;;;;;2.40;2.20;;;13.10;99.90;;;;;;5011166;28;20985;-78
2022/06/08 03:08:36;;;;;;;2.37;2.00;;;13.10;99.90;;;;;;5005602;28;20529;-77
2022/06/08 03:11:04;;;;;;;7.60;2.40;;;13.10;99.90;;;;;;4999567;28;20513;-77
2022/06/08 03:13:55;;;;;;;4.70;2.30;;;13.10;99.90;;;;;;5014595;28;20409;-77
2022/06/08 03:16:30;;;;;;;2.40;2.17;;;13.10;99.90;;;;;;5012421;28;20444;-77
2022/06/08 03:18:56;;;;;;;2.47;2.20;;;13.20;99.90;;;;;;5013906;28;20489;-77
2022/06/08 03:21:22;;;;;;;3.90;2.30;;;13.20;99.90;;;;;;5010984;28;20461;-77
2022/06/08 03:23:49;;;;;;;3.10;1.97;;;13.30;99.90;;;;;;5007457;28;20799;-76
2022/06/08 03:26:19;;;;;;;2.10;1.90;;;13.30;99.90;;;;;;5008773;28;20858;-77
2022/06/08 03:28:45;;;;;;;2.10;1.90;;;13.30;99.90;;;;;;5011031;28;20564;-77
2022/06/08 03:31:11;;;;;;;3.63;1.63;;;13.40;99.90;;;;;;5012285;28;20935;-77
2022/06/08 03:33:36;;;;;;;2.10;1.80;;;13.40;99.90;;;;;;5006638;28;20245;-75
2022/06/08 03:36:02;;;;;;;2.10;2.00;;;13.40;99.90;;;;;;5010513;28;20206;-75
2022/06/08 03:38:28;;;;;;;4.20;2.00;;;13.50;99.90;;;;;;5007390;28;20191;-75
2022/06/08 03:40:54;;;;;;;2.37;2.17;;;13.50;99.90;;;;;;5012486;28;20583;-74
2022/06/08 03:43:19;;;;;;;2.00;1.80;;;13.50;99.90;;;;;;5010293;28;20595;-75
2022/06/08 03:45:49;;;;;;;3.90;2.40;;;13.60;99.90;;;;;;5012504;28;20213;-75
2022/06/08 03:48:16;;;;;;;2.73;2.53;;;13.60;99.90;;;;;;5010449;28;20179;-74
2022/06/08 03:50:43;;;;;;;2.20;2.10;;;13.60;99.90;;;;;;5008939;28;20494;-75
2022/06/08 03:53:18;;;;;;;2.07;1.80;;;13.80;99.90;;;;;;5005808;28;20497;-75
2022/06/08 03:55:47;;;;;;;2.83;2.17;;;13.80;99.90;;;;;;5004687;28;20416;-75
2022/06/08 03:58:13;;;;;;;2.07;1.97;;;13.90;99.90;;;;;;5010341;28;20428;-75
2022/06/08 04:00:41;;;;;;;2.50;1.63;;;13.90;99.90;;;;;;5010062;28;20521;-75
2022/06/08 04:03:09;;;;;;;2.33;1.90;;;14.00;99.90;;;;;;5012059;28;20518;-74
2022/06/08 04:05:35;;;;;;;6.27;1.80;;;14.10;99.90;;;;;;5009452;28;20472;-70
2022/06/08 04:08:00;;;;;;;4.57;1.90;;;14.30;99.90;;;;;;5010020;28;20438;-72
2022/06/08 04:10:26;;;;;;;1.87;1.67;;;14.40;99.90;;;;;;5008758;28;20951;-72
2022/06/08 04:12:52;;;;;;;2.00;1.87;;;14.60;99.90;;;;;;5012046;28;20225;-72
2022/06/08 04:18:02;;;;;;;3.53;1.60;;;14.80;99.90;;;;;;5012296;28;20188;-72
2022/06/08 04:20:28;;;;;;;8.53;1.90;;;14.90;99.90;;;;;;5008275;28;20437;-71
2022/06/08 04:22:53;;;;;;;1.83;1.50;;;15.00;99.90;;;;;;5004805;28;20543;-71
2022/06/08 04:25:19;;;;;;;2.43;1.50;;;15.10;99.90;;;;;;5009607;28;21036;-72
2022/06/08 04:27:44;;;;;;;2.70;1.50;;;15.20;99.90;;;;;;5013219;28;20198;-71
2022/06/08 04:30:11;;;;;;;1.50;1.40;;;15.20;99.90;;;;;;5011696;28;20635;-71
2022/06/08 04:32:36;;;;;;;2.43;1.43;;;15.20;99.90;;;;;;5010186;28;20594;-72
2022/06/08 04:35:03;;;;;;;2.73;1.93;;;15.30;99.90;;;;;;5010961;28;20480;-72
2022/06/08 04:37:28;;;;;;;3.67;1.50;;;15.40;99.90;;;;;;5007490;28;20183;-72
2022/06/08 04:39:54;;;;;;;2.83;1.97;;;15.40;99.90;;;;;;5011858;28;20501;-72
2022/06/08 04:42:19;;;;;;;3.27;1.47;;;15.50;99.90;;;;;;5007138;28;20642;-72
2022/06/08 04:44:45;;;;;;;1.93;1.80;;;15.50;99.90;;;;;;5011538;28;20182;-72
2022/06/08 04:47:11;;;;;;;4.10;1.67;;;15.50;99.90;;;;;;5009205;28;20552;-71
2022/06/08 04:49:38;;;;;;;3.90;1.33;;;15.50;99.90;;;;;;5011707;28;20760;-72
2022/06/08 04:52:05;;;;;;;2.10;1.63;;;15.50;99.90;;;;;;5004523;28;20203;-71
2022/06/08 04:54:31;;;;;;;4.43;1.60;;;15.50;99.90;;;;;;5011566;28;20441;-72
2022/06/08 04:56:57;;;;;;;2.60;1.40;;;15.60;99.90;;;;;;5009420;28;20433;-73
2022/06/08 04:59:22;;;;;;;4.87;1.50;;;15.70;99.90;;;;;;5011248;28;20449;-72
2022/06/08 05:01:48;;;;;;;4.47;3.60;;;15.90;99.90;;;;;;5009349;28;20198;-72
2022/06/08 05:04:13;;;;;;;2.33;1.63;;;16.20;99.90;;;;;;5002084;28;20179;-72
2022/06/08 05:06:39;;;;;;;4.70;1.60;;;16.50;99.90;;;;;;5011348;28;20612;-72
2022/06/08 05:09:04;;;;;;;6.57;1.47;;;16.70;99.90;;;;;;5009205;28;20266;-72
2022/06/08 05:11:30;;;;;;;3.00;1.37;;;17.00;99.90;;;;;;5011039;28;20202;-73
2022/06/08 05:13:55;;;;;;;2.90;1.53;;;17.50;99.90;;;;;;5007301;28;20655;-75
2022/06/08 05:16:21;;;;;;;1.83;1.00;;;17.90;99.90;;;;;;5012192;28;20175;-75
2022/06/08 05:18:46;;;;;;;3.33;1.50;;;18.40;99.90;;;;;;5013734;28;20256;-75
2022/06/08 05:21:12;;;;;;;4.43;1.33;;;18.90;99.90;;;;;;5007927;28;20216;-75
2022/06/08 05:23:39;;;;;;;4.03;1.00;;;19.50;99.90;;;;;;5005861;28;20184;-75
2022/06/08 05:26:07;;;;;;;4.80;1.30;;;20.10;99.90;;;;;;5008674;28;20206;-74
2022/06/08 05:28:33;;;;;;;5.30;1.10;;;20.90;99.90;;;;;;5005877;28;20433;-74
2022/06/08 05:30:59;;;;;;;3.20;1.77;;;22.00;99.90;;;;;;5012669;28;20445;-74
2022/06/08 05:33:26;;;;;;;2.53;1.00;;;22.20;99.90;;;;;;5012198;28;20171;-74
2022/06/08 05:35:52;;;;;;;6.07;1.07;;;21.70;99.90;;;;;;5013639;28;20183;-75
2022/06/08 05:38:18;;;;;;;6.63;1.70;;;21.10;99.90;;;;;;5011970;28;20451;-75
2022/06/08 05:40:43;;;;;;;2.00;1.10;;;20.90;99.90;;;;;;5012857;28;20281;-75
2022/06/08 05:43:12;;;;;;;5.73;1.40;;;21.10;99.90;;;;;;5014824;28;20253;-74
2022/06/08 05:45:39;;;;;;;2.70;1.10;;;21.50;99.90;;;;;;5003972;28;20289;-75
2022/06/08 05:48:06;;;;;;;1.80;1.43;;;21.90;99.90;;;;;;5000444;28;21721;-75
2022/06/08 05:50:32;;;;;;;1.70;1.07;;;21.70;99.90;;;;;;5003439;28;20901;-73
2022/06/08 05:52:58;;;;;;;7.70;1.30;;;21.40;99.90;;;;;;5007427;28;20456;-76
2022/06/08 05:55:24;;;;;;;1.23;0.90;;;21.70;99.90;;;;;;5012689;28;20429;-76
2022/06/08 05:57:51;;;;;;;1.60;1.00;;;21.60;99.90;;;;;;5013200;28;20202;-76
2022/06/08 06:00:20;;;;;;;3.17;1.10;;;21.90;99.90;;;;;;5011558;28;20442;-73
2022/06/08 06:02:46;;;;;;;2.50;1.20;;;21.90;99.90;;;;;;4994913;28;20440;-75
2022/06/08 06:05:13;;;;;;;4.13;1.00;;;21.70;99.90;;;;;;4994895;28;20450;-75
2022/06/08 06:07:40;;;;;;;7.20;1.50;;;21.80;99.90;;;;;;4999486;28;20190;-77
2022/06/08 06:10:06;;;;;;;2.57;0.83;;;21.70;99.90;;;;;;5010749;28;20421;-77
2022/06/08 06:12:32;;;;;;;4.97;1.03;;;21.60;99.90;;;;;;5011997;28;20867;-77
2022/06/08 06:15:01;;;;;;;2.63;0.87;;;21.20;99.90;;;;;;5014314;28;20413;-76
2022/06/08 06:17:27;;;;;;;3.07;1.20;;;20.80;99.90;;;;;;5010374;28;20768;-77
2022/06/08 06:19:52;;;;;;;4.93;1.07;;;20.60;99.90;;;;;;5014309;28;20429;-76
2022/06/08 06:22:18;;;;;;;7.10;1.37;;;20.70;99.90;;;;;;5006982;28;20481;-76
2022/06/08 06:24:43;;;;;;;2.63;1.43;;;21.10;99.90;;;;;;5014127;28;20183;-77
2022/06/08 06:27:09;;;;;;;1.93;0.83;;;21.50;99.90;;;;;;5011988;28;20182;-77
2022/06/08 06:29:35;;;;;;;6.30;1.00;;;21.60;99.90;;;;;;5011095;28;20183;-77
2022/06/08 06:32:05;;;;;;;1.90;0.70;;;21.90;99.90;;;;;;5012159;28;20229;-76
2022/06/08 06:34:31;;;;;;;3.27;1.20;;;22.10;99.90;;;;;;5011243;28;20278;-77
2022/06/08 06:36:58;;;;;;;2.10;1.17;;;21.90;99.90;;;;;;5014065;28;20493;-77
2022/06/08 06:39:26;;;;;;;3.67;0.80;;;22.10;99.90;;;;;;5009563;28;20678;-76
2022/06/08 06:41:53;;;;;;;6.23;0.90;;;22.00;99.90;;;;;;5013501;28;20979;-77
2022/06/08 06:44:19;;;;;;;1.83;0.97;;;22.00;99.90;;;;;;5011545;28;20433;-77
2022/06/08 06:46:45;;;;;;;6.87;1.10;;;21.90;99.90;;;;;;5013749;28;20461;-76
2022/06/08 06:49:11;;;;;;;3.20;1.07;;;21.90;99.90;;;;;;5010442;28;20441;-76
2022/06/08 06:51:37;;;;;;;3.70;1.07;;;21.70;99.90;;;;;;5013561;28;20218;-77
2022/06/08 06:54:05;;;;;;;1.83;0.97;;;21.70;99.90;;;;;;5007567;28;20429;-75
2022/06/08 06:56:32;;;;;;;2.73;0.80;;;21.90;99.90;;;;;;5013749;28;20413;-76
2022/06/08 06:58:58;;;;;;;4.40;0.87;;;22.70;99.90;;;;;;5012016;28;20572;-76
2022/06/08 07:01:24;;;;;;;1.67;0.90;;;23.10;99.90;;;;;;5012974;28;20472;-77
2022/06/08 07:03:50;;;;;;;3.77;1.20;;;23.30;99.90;;;;;;5013331;28;20414;-77
2022/06/08 07:06:15;;;;;;;4.23;1.83;;;23.50;99.90;;;;;;4993915;28;20293;-77
2022/06/08 07:08:41;;;;;;;1.20;1.00;;;23.10;99.90;;;;;;5005107;28;20178;-76
2022/06/08 07:13:51;;;;;;;3.33;1.03;;;23.00;99.90;;;;;;4994357;28;20183;-77
2022/06/08 07:16:17;;;;;;;7.53;1.10;;;22.80;99.90;;;;;;5007380;28;21001;-77
2022/06/08 07:18:42;;;;;;;6.10;1.30;;;23.00;99.90;;;;;;5013632;28;20272;-77
2022/06/08 07:21:10;;;;;;;3.13;1.20;;;23.20;99.90;;;;;;5012180;28;20202;-76
2022/06/08 07:23:35;;;;;;;3.13;1.10;;;22.90;99.90;;;;;;5004834;28;20190;-76
2022/06/08 07:26:01;;;;;;;4.93;1.13;;;23.00;99.90;;;;;;5011189;28;20524;-76
2022/06/08 07:28:27;;;;;;;2.27;1.30;;;23.30;99.90;;;;;;5013186;28;20256;-77
2022/06/08 07:30:52;;;;;;;3.80;0.90;;;23.70;99.90;;;;;;5008960;28;20258;-77
2022/06/08 07:33:19;;;;;;;2.57;1.07;;;24.30;99.90;;;;;;4999567;28;20223;-77
2022/06/08 07:35:45;;;;;;;3.53;1.20;;;24.20;99.90;;;;;;5005177;28;20643;-77
2022/06/08 07:38:11;;;;;;;2.67;1.07;;;24.40;99.90;;;;;;4998560;28;20508;-77
2022/06/08 07:40:36;;;;;;;2.10;1.07;;;24.60;99.90;;;;;;5012417;28;20516;-77
2022/06/08 07:43:02;;;;;;;2.50;1.00;;;24.90;99.90;;;;;;5009417;28;20265;-77
2022/06/08 07:45:27;;;;;;;3.73;1.00;;;25.10;99.90;;;;;;5012022;28;20221;-77
2022/06/08 07:50:37;;;;;;;4.10;0.90;;;25.00;99.90;;;;;;5012519;28;20278;-76
2022/06/08 07:53:02;;;;;;;8.00;1.20;;;25.10;99.90;;;;;;5008146;28;20519;-77
2022/06/08 07:55:28;;;;;;;2.70;0.90;;;25.00;99.90;;;;;;5015003;28;20248;-75
2022/06/08 07:57:54;;;;;;;9.93;1.53;;;25.50;99.90;;;;;;5011662;28;20281;-75
2022/06/08 08:00:21;;;;;;;5.67;1.30;;;25.90;99.90;;;;;;5012630;28;20285;-75
2022/06/08 08:02:47;;;;;;;3.33;1.10;;;25.70;99.90;;;;;;5010425;28;20225;-75
2022/06/08 08:05:14;;;;;;;4.70;1.00;;;25.90;99.90;;;;;;5009196;28;20914;-73
2022/06/08 08:07:41;;;;;;;3.93;0.80;;;25.80;99.90;;;;;;5010472;28;20183;-74
2022/06/08 08:10:11;;;;;;;2.97;0.80;;;25.90;99.90;;;;;;5012377;28;20421;-74
2022/06/08 08:12:37;;;;;;;4.50;1.33;;;25.90;99.90;;;;;;5010164;28;20437;-73
2022/06/08 08:15:04;;;;;;;3.50;1.27;;;25.90;99.90;;;;;;5004557;28;20436;-74
2022/06/08 08:17:29;;;;;;;1.70;0.97;;;25.70;99.90;;;;;;5012385;28;20657;-74
2022/06/08 08:19:55;;;;;;;1.97;0.97;;;25.90;99.90;;;;;;5010528;28;20445;-74
2022/06/08 08:22:21;;;;;;;2.87;0.93;;;26.20;99.90;;;;;;5011212;28;20245;-74
2022/06/08 08:24:47;;;;;;;3.67;0.90;;;26.20;99.90;;;;;;5009363;28;20179;-73
2022/06/08 08:27:13;;;;;;;4.97;1.10;;;25.50;99.90;;;;;;5012238;28;20560;-75
2022/06/08 08:29:39;;;;;;;6.07;0.93;;;25.90;99.90;;;;;;5012285;28;20187;-76
2022/06/08 08:32:05;;;;;;;8.03;1.10;;;26.60;99.90;;;;;;5012034;28;20503;-75
2022/06/08 08:34:33;;;;;;;4.33;0.77;;;27.10;99.90;;;;;;5000635;28;20434;-76
2022/06/08 08:36:58;;;;;;;2.50;0.97;;;27.30;99.90;;;;;;5012200;28;20418;-77
2022/06/08 08:39:24;;;;;;;3.43;1.20;;;27.40;99.90;;;;;;5005463;28;20950;-76
2022/06/08 08:44:38;;;;;;;2.80;0.80;;;27.90;99.90;;;;;;5010736;28;20272;-76
2022/06/08 08:47:35;;;;;;;5.50;1.43;;;27.70;99.90;;;;;;5007778;28;20497;-76
2022/06/08 08:50:30;;;;;;;4.50;1.30;;;27.30;99.90;;;;;;5009811;28;20536;-76
2022/06/08 08:53:29;;;;;;;1.73;1.10;;;27.50;99.90;;;;;;5015126;28;20450;-75
2022/06/08 08:56:17;;;;;;;0.80;0.80;;;27.40;99.90;;;;;;4992301;28;20456;-76
2022/06/08 08:58:45;;;;;;;1.17;0.80;;;27.50;99.90;;;;;;4998807;28;20421;-76
2022/06/08 09:01:22;;;;;;;1.50;0.70;;;27.90;99.90;;;;;;5008213;28;20452;-74
2022/06/08 09:03:56;;;;;;;4.00;0.73;;;27.90;99.90;;;;;;5018319;28;20871;-75
2022/06/08 09:06:29;;;;;;;2.30;1.03;;;28.10;99.90;;;;;;5014186;28;20534;-74
2022/06/08 09:09:00;;;;;;;5.03;1.00;;;28.50;99.90;;;;;;5015829;28;20417;-76
2022/06/08 09:11:35;;;;;;;1.47;1.00;;;29.10;99.90;;;;;;5015730;28;20453;-77
2022/06/08 09:14:13;;;;;;;2.60;0.87;;;28.90;99.90;;;;;;5018176;28;20451;-77
2022/06/08 09:16:45;;;;;;;2.50;0.83;;;28.40;99.90;;;;;;5016048;28;20433;-76
2022/06/08 09:19:30;;;;;;;3.40;0.90;;;28.60;99.90;;;;;;5017933;28;20513;-76
2022/06/08 09:22:17;;;;;;;4.73;1.13;;;27.90;99.90;;;;;;5015937;28;20798;-76
2022/06/08 09:24:53;;;;;;;5.23;1.13;;;28.10;99.90;;;;;;5015431;28;20449;-74
2022/06/08 09:27:35;;;;;;;3.80;1.00;;;28.30;99.90;;;;;;5014411;28;20441;-74
2022/06/08 09:30:26;;;;;;;2.53;0.80;;;28.60;99.90;;;;;;5017558;28;20424;-75
2022/06/08 09:32:59;;;;;;;1.73;0.70;;;28.80;99.90;;;;;;5015274;28;20875;-76
2022/06/08 09:35:37;;;;;;;4.77;0.90;;;28.60;99.90;;;;;;5013962;28;20494;-75
2022/06/08 09:38:06;;;;;;;0.80;0.67;;;28.80;99.90;;;;;;5012471;28;20441;-74
2022/06/08 09:41:00;;;;;;;4.07;1.27;;;29.00;99.90;;;;;;4998127;28;21011;-74
2022/06/08 09:43:52;;;;;;;1.90;0.93;;;29.20;99.90;;;;;;4982332;28;20469;-74
2022/06/08 09:52:50;;;;;;;1.77;0.70;;;28.50;99.70;;;;;;5015527;28;20636;-76
2022/06/08 09:56:20;;;;;;;1.00;0.80;;;28.20;99.80;;;;;;4998101;28;20410;-76
2022/06/08 09:58:58;;;;;;;1.47;0.93;;;27.20;99.90;;;;;;4902610;29;20451;-74
2022/06/08 10:01:36;;;;;;;2.77;1.10;;;26.40;99.90;;;;;;4990384;28;20454;-76
2022/06/08 10:04:28;;;;;;;1.80;0.70;;;26.00;99.90;;;;;;5003177;28;20444;-74
2022/06/08 10:07:01;;;;;;;1.17;0.80;;;26.00;99.90;;;;;;5014409;28;20449;-75
2022/06/08 10:09:31;;;;;;;2.10;0.80;;;26.30;99.90;;;;;;5010107;28;21089;-76
2022/06/08 10:12:06;;;;;;;2.70;0.70;;;26.20;99.90;;;;;;5012904;28;20806;-76
2022/06/08 10:14:43;;;;;;;2.40;0.70;;;25.80;99.90;;;;;;5012517;28;20437;-75
2022/06/08 10:17:17;;;;;;;1.97;0.60;;;25.50;99.90;;;;;;5014288;28;20405;-74
2022/06/08 10:19:54;;;;;;;4.20;0.60;;;25.50;99.90;;;;;;5010574;28;20436;-76
2022/06/08 10:22:21;;;;;;;2.80;0.80;;;26.10;99.90;;;;;;5013298;28;20460;-76
2022/06/08 10:24:58;;;;;;;3.33;1.00;;;26.40;99.90;;;;;;5010752;28;20441;-75
2022/06/08 10:27:41;;;;;;;1.33;0.80;;;26.70;99.90;;;;;;5014851;28;20520;-75
2022/06/08 10:30:28;;;;;;;1.63;0.70;;;27.30;99.90;;;;;;5012459;28;20438;-76
2022/06/08 10:33:05;;;;;;;1.20;0.67;;;27.40;99.50;;;;;;4994600;28;20442;-75
2022/06/08 10:35:36;;;;;;;3.30;0.60;;;27.60;97.30;;;;;;5011226;28;20443;-76
2022/06/08 10:38:03;;;;;;;1.43;0.80;;;27.70;99.10;;;;;;5012330;28;21017;-74
2022/06/08 10:40:50;;;;;;;6.10;0.90;;;27.80;98.80;;;;;;5011564;28;20526;-74
2022/06/08 10:43:29;;;;;;;1.00;0.77;;;27.40;99.10;;;;;;5012965;28;20452;-75
2022/06/08 10:45:57;;;;;;;1.10;0.77;;;27.40;99.70;;;;;;5011824;28;20472;-75
2022/06/08 10:48:48;;;;;;;2.37;0.70;;;27.60;99.30;;;;;;5013819;28;20418;-75
2022/06/08 10:51:13;;;;;;;2.67;0.70;;;27.70;98.90;;;;;;5007199;28;20462;-74
2022/06/08 10:56:47;;;;;;;2.90;0.70;;;27.70;99.80;;;;;;5011613;28;20678;-75
2022/06/08 10:59:20;;;;;;;2.40;0.70;;;27.70;98.40;;;;;;5013466;28;20406;-76
2022/06/08 11:02:03;;;;;;;1.40;0.80;;;27.90;98.80;;;;;;5009174;28;20454;-76
2022/06/08 11:04:35;;;;;;;2.40;0.70;;;27.30;97.40;;;;;;4994012;28;20437;-75
2022/06/08 11:07:10;;;;;;;4.50;0.80;;;27.10;99.30;;;;;;5004243;28;20552;-75
2022/06/08 11:09:36;;;;;;;3.60;0.77;;;26.60;99.80;;;;;;5011342;28;20523;-75
2022/06/08 11:12:16;;;;;;;3.90;0.73;;;26.20;97.90;;;;;;5010624;28;20465;-74
2022/06/08 11:14:44;;;;;;;1.20;0.70;;;25.70;96.70;;;;;;5014545;28;20210;-74
2022/06/08 11:17:30;;;;;;;1.87;0.60;;;25.50;98.90;;;;;;5011699;28;20809;-74
2022/06/08 11:20:26;;;;;;;1.63;0.80;;;25.10;99.40;;;;;;5013753;28;20441;-75
2022/06/08 11:23:30;;;;;;;3.90;0.73;;;25.00;99.40;;;;;;5007239;28;20841;-74
2022/06/08 11:26:04;;;;;;;1.67;0.60;;;25.40;99.80;;;;;;4971472;28;21191;-74
2022/06/08 11:28:35;;;;;;;3.83;1.00;;;26.00;97.60;;;;;;5004788;28;20467;-73
2022/06/08 11:31:32;;;;;;;1.63;0.80;;;25.80;96.80;;;;;;5012434;28;20449;-74
2022/06/08 11:34:09;;;;;;;1.57;0.50;;;25.60;97.90;;;;;;5004453;28;20947;-74
2022/06/08 11:36:50;;;;;;;1.00;0.60;;;25.60;97.60;;;;;;5009497;28;20429;-74
2022/06/08 11:39:42;;;;;;;1.63;0.80;;;25.90;97.70;;;;;;5006535;28;21018;-74
2022/06/08 11:42:25;;;;;;;0.93;0.70;;;25.80;96.20;;;;;;5012169;28;20426;-74
2022/06/08 11:44:54;;;;;;;1.40;0.70;;;25.70;96.80;;;;;;5010538;28;20437;-77
2022/06/08 11:47:26;;;;;;;3.47;0.90;;;26.10;96.90;;;;;;5012277;28;20453;-75
2022/06/08 11:50:03;;;;;;;1.07;0.60;;;26.30;96.10;;;;;;5012116;28;20945;-75
2022/06/08 11:52:35;;;;;;;1.77;0.60;;;26.30;96.90;;;;;;5012059;28;20483;-74
2022/06/08 11:55:12;;;;;;;0.70;0.60;;;26.00;96.90;;;;;;5010051;28;20445;-74
2022/06/08 11:57:42;;;;;;;0.60;0.60;;;25.80;96.50;;;;;;5012315;28;20440;-75
2022/06/08 12:00:22;;;;;;;1.70;0.70;;;25.50;97.20;;;;;;5010239;28;20960;-75
2022/06/08 12:02:52;;;;;;;3.07;0.70;;;25.50;99.20;;;;;;5012076;28;20460;-75
2022/06/08 12:05:28;;;;;;;2.50;0.87;;;25.40;99.80;;;;;;5007992;28;20457;-74
2022/06/08 12:07:57;;;;;;;5.90;0.80;;;25.80;99.90;;;;;;5010057;28;20466;-75
2022/06/08 12:10:27;;;;;;;1.73;0.90;;;26.40;99.90;;;;;;5006450;28;20433;-74
2022/06/08 12:12:54;;;;;;;1.93;0.80;;;26.80;99.60;;;;;;5011993;28;20426;-75
2022/06/08 12:15:34;;;;;;;1.73;0.60;;;27.30;98.40;;;;;;5004826;28;20449;-75
2022/06/08 12:18:24;;;;;;;2.00;0.60;;;27.40;98.10;;;;;;4999978;28;20449;-75
2022/06/08 12:21:01;;;;;;;4.23;0.70;;;27.50;96.20;;;;;;5003187;28;20438;-75
2022/06/08 12:24:00;;;;;;;4.10;0.60;;;27.50;96.70;;;;;;5006036;28;20525;-75
2022/06/08 12:26:27;;;;;;;2.30;0.60;;;27.30;96.80;;;;;;5000227;28;20953;-75
2022/06/08 12:29:19;;;;;;;4.57;0.77;;;26.60;96.10;;;;;;5004568;28;20421;-75
2022/06/08 12:31:45;;;;;;;1.57;0.70;;;26.30;95.40;;;;;;5007937;28;20461;-74
2022/06/08 12:34:39;;;;;;;3.90;0.80;;;26.00;96.40;;;;;;5000695;28;20501;-74
2022/06/08 12:37:34;;;;;;;1.00;0.60;;;25.80;96.80;;;;;;4991972;28;20411;-73
2022/06/08 12:40:25;;;;;;;1.17;0.93;;;25.70;97.20;;;;;;4991944;28;20415;-74
2022/06/08 12:43:07;;;;;;;1.00;0.70;;;25.70;97.00;;;;;;4998253;28;20460;-73
2022/06/08 12:45:41;;;;;;;1.23;0.50;;;25.80;98.90;;;;;;5011368;28;20493;-74
2022/06/08 12:48:36;;;;;;;1.50;0.93;;;26.00;98.40;;;;;;5009745;28;20483;-74
2022/06/08 12:51:37;;;;;;;4.03;0.70;;;25.90;98.30;;;;;;5009048;28;20444;-73
2022/06/08 12:54:11;;;;;;;1.67;0.63;;;26.00;97.10;;;;;;5010931;28;21000;-73
2022/06/08 12:56:37;;;;;;;2.60;0.70;;;26.00;97.40;;;;;;5011521;28;20425;-75
2022/06/08 12:59:03;;;;;;;3.10;0.63;;;26.10;98.60;;;;;;5011469;28;20425;-74
2022/06/08 13:01:30;;;;;;;2.00;0.73;;;26.00;96.70;;;;;;5011056;28;20848;-75
2022/06/08 13:03:56;;;;;;;1.03;0.80;;;25.80;98.60;;;;;;5011450;28;20182;-75
2022/06/08 13:06:24;;;;;;;3.73;1.13;;;25.80;96.90;;;;;;5009962;28;20551;-73
2022/06/08 13:08:49;;;;;;;1.03;0.87;;;25.70;98.20;;;;;;5011666;28;20416;-74
2022/06/08 13:11:19;;;;;;;5.00;0.67;;;25.70;97.40;;;;;;5011000;28;20429;-75
2022/06/08 13:13:46;;;;;;;3.17;1.00;;;25.50;98.20;;;;;;5011791;28;20167;-75
2022/06/08 13:16:17;;;;;;;1.63;0.80;;;25.30;97.00;;;;;;5011226;28;20421;-75
2022/06/08 13:18:43;;;;;;;1.57;0.60;;;25.40;98.70;;;;;;5011531;28;20437;-76
2022/06/08 13:21:11;;;;;;;1.23;0.60;;;25.40;99.00;;;;;;5011103;28;20480;-74
2022/06/08 13:23:37;;;;;;;1.43;0.70;;;25.40;99.20;;;;;;5011764;28;20269;-75
2022/06/08 13:26:02;;;;;;;4.80;0.90;;;25.50;99.50;;;;;;5011238;28;20523;-76
2022/06/08 13:28:32;;;;;;;2.60;1.37;;;25.50;96.40;;;;;;5011339;28;20193;-76
2022/06/08 13:31:05;;;;;;;1.00;0.70;;;25.30;96.60;;;;;;5010779;28;20203;-76
2022/06/08 13:36:27;;;;;;;1.57;0.60;;;25.00;97.50;;;;;;5011359;28;20416;-75
2022/06/08 13:39:01;;;;;;;1.90;0.70;;;24.90;97.10;;;;;;5014727;28;20420;-75
2022/06/08 13:41:27;;;;;;;3.20;1.03;;;24.90;97.60;;;;;;5014631;28;20449;-75
2022/06/08 13:43:52;;;;;;;1.20;0.60;;;24.90;97.10;;;;;;5013501;28;20429;-75
2022/06/08 13:46:23;;;;;;;2.50;0.70;;;24.80;98.10;;;;;;5014603;28;20321;-76
2022/06/08 13:48:51;;;;;;;2.43;0.70;;;24.80;99.60;;;;;;5014748;28;20639;-76
2022/06/08 13:51:16;;;;;;;1.43;0.80;;;24.80;98.70;;;;;;5014255;28;20801;-75
2022/06/08 13:53:42;;;;;;;1.33;0.80;;;24.90;99.90;;;;;;5014675;28;20406;-75
2022/06/08 13:56:11;;;;;;;2.77;0.60;;;25.00;99.90;;;;;;5013224;28;20175;-75
2022/06/08 13:58:36;;;;;;;3.67;1.30;;;25.00;99.90;;;;;;5014645;28;20707;-74
2022/06/08 14:01:18;;;;;;;0.93;0.80;;;25.00;99.90;;;;;;5014137;28;20572;-74
2022/06/08 14:03:45;;;;;;;0.97;0.73;;;24.80;99.70;;;;;;5014547;28;20175;-75
2022/06/08 14:14:27;;;;;;;0.97;0.60;;;24.90;99.90;;;;;;5014587;28;20416;-74
2022/06/08 14:16:57;;;;;;;4.70;0.80;;;24.70;99.60;;;;;;5014230;28;20418;-75
2022/06/08 14:19:25;;;;;;;2.20;0.83;;;24.60;99.50;;;;;;5014068;28;20262;-73
2022/06/08 14:21:52;;;;;;;1.83;0.80;;;24.60;99.90;;;;;;5013838;28;20442;-74
2022/06/08 14:24:41;;;;;;;3.07;0.77;;;24.40;99.90;;;;;;5014052;28;20488;-76
2022/06/08 14:27:09;;;;;;;7.23;1.00;;;24.20;99.90;;;;;;5013883;28;20958;-76
2022/06/08 14:29:36;;;;;;;1.60;0.80;;;24.20;99.90;;;;;;5014162;28;20445;-74
2022/06/08 14:32:08;;;;;;;2.83;0.87;;;23.90;99.90;;;;;;5013416;28;20441;-76
2022/06/08 14:34:34;;;;;;;1.87;0.87;;;23.80;99.90;;;;;;5013980;28;20806;-74
2022/06/08 14:37:02;;;;;;;3.67;0.87;;;23.80;99.90;;;;;;5013752;28;20899;-73
2022/06/08 14:39:31;;;;;;;1.53;0.87;;;23.70;99.90;;;;;;5013496;28;20430;-74
2022/06/08 14:41:59;;;;;;;1.93;0.87;;;23.50;99.90;;;;;;5013442;28;20496;-75
2022/06/08 14:44:24;;;;;;;5.67;0.83;;;23.20;99.90;;;;;;5013664;28;20430;-74
2022/06/08 14:46:57;;;;;;;2.67;0.90;;;23.00;99.90;;;;;;5012142;28;20457;-75
2022/06/08 14:49:28;;;;;;;3.23;1.10;;;22.80;99.90;;;;;;5012782;28;20637;-73
2022/06/08 14:51:55;;;;;;;2.70;0.90;;;22.70;99.90;;;;;;5013221;28;20436;-73
2022/06/08 14:54:23;;;;;;;6.13;1.40;;;22.60;99.90;;;;;;5013412;28;20461;-75
2022/06/08 14:56:58;;;;;;;1.90;0.87;;;22.30;99.90;;;;;;5013516;28;20457;-75
2022/06/08 14:59:25;;;;;;;2.80;1.10;;;22.10;99.90;;;;;;5013369;28;20406;-73
2022/06/08 15:01:52;;;;;;;5.03;1.37;;;21.70;99.90;;;;;;5012480;28;20449;-73
2022/06/08 15:04:21;;;;;;;1.30;1.00;;;21.40;99.90;;;;;;5013132;28;20620;-74
2022/06/08 15:06:48;;;;;;;4.20;1.10;;;21.00;99.90;;;;;;5006775;28;20546;-74
2022/06/08 15:09:15;;;;;;;4.30;1.30;;;20.70;99.90;;;;;;5013440;28;20508;-73
2022/06/08 15:11:57;;;;;;;7.80;1.40;;;20.50;99.90;;;;;;5012366;28;20517;-73